sensor_id;sensor_type;location;lat;lon;timestamp;P1;durP1;ratioP1;P2;durP2;ratioP2
9310;SDS011;4694;52.464;13.480;2023-04-21T05:42:16;18.40;;;13.57;;
9310;SDS011;4694;52.464;13.480;2023-04-21T05:44:43;20.98;;;12.98;;
9310;SDS011;4694;52.464;13.480;2023-04-21T05:47:10;21.20;;;14.30;;
9310;SDS011;4694;52.464;13.480;2023-04-21T05:49:37;20.25;;;12.95;;
9310;SDS011;4694;52.464;13.480;2023-04-21T05:52:07;18.95;;;12.98;;
9310;SDS011;4694;52.464;13.480;2023-04-21T05:54:35;19.95;;;13.43;;
9310;SDS011;4694;52.464;13.480;2023-04-21T05:57:04;20.58;;;13.57;;
9310;SDS011;4694;52.464;13.480;2023-04-21T05:59:33;22.40;;;14.63;;
9310;SDS011;4694;52.464;13.480;2023-04-21T06:02:01;20.38;;;12.60;;
9310;SDS011;4694;52.464;13.480;2023-04-21T06:04:28;22.27;;;12.82;;
9310;SDS011;4694;52.464;13.480;2023-04-21T06:06:55;20.75;;;13.45;;
9310;SDS011;4694;52.464;13.480;2023-04-21T06:09:22;17.70;;;13.45;;
9310;SDS011;4694;52.464;13.480;2023-04-21T06:11:49;14.73;;;11.93;;
9310;SDS011;4694;52.464;13.480;2023-04-21T06:14:16;20.55;;;13.05;;
9310;SDS011;4694;52.464;13.480;2023-04-21T06:16:45;17.13;;;12.32;;
9310;SDS011;4694;52.464;13.480;2023-04-21T06:19:12;17.67;;;11.77;;
9310;SDS011;4694;52.464;13.480;2023-04-21T06:21:38;21.15;;;12.82;;
9310;SDS011;4694;52.464;13.480;2023-04-21T06:24:06;16.80;;;11.90;;
9310;SDS011;4694;52.464;13.480;2023-04-21T06:26:33;17.08;;;11.63;;
9310;SDS011;4694;52.464;13.480;2023-04-21T06:29:00;18.40;;;11.63;;
9310;SDS011;4694;52.464;13.480;2023-04-21T06:31:27;18.77;;;14.15;;
9310;SDS011;4694;52.464;13.480;2023-04-21T06:33:55;15.80;;;11.60;;
9310;SDS011;4694;52.464;13.480;2023-04-21T06:36:22;25.65;;;13.55;;
9310;SDS011;4694;52.464;13.480;2023-04-21T06:38:49;14.65;;;10.90;;
9310;SDS011;4694;52.464;13.480;2023-04-21T06:41:16;16.40;;;11.48;;
9310;SDS011;4694;52.464;13.480;2023-04-21T06:43:43;20.92;;;13.07;;
9310;SDS011;4694;52.464;13.480;2023-04-21T06:46:10;14.60;;;11.73;;
9310;SDS011;4694;52.464;13.480;2023-04-21T06:48:38;15.10;;;11.63;;
9310;SDS011;4694;52.464;13.480;2023-04-21T06:51:07;16.75;;;12.60;;
9310;SDS011;4694;52.464;13.480;2023-04-21T06:53:34;16.80;;;12.00;;
9310;SDS011;4694;52.464;13.480;2023-04-21T06:56:01;15.27;;;12.00;;
9310;SDS011;4694;52.464;13.480;2023-04-21T06:58:29;18.90;;;11.32;;
9310;SDS011;4694;52.464;13.480;2023-04-21T07:00:55;14.75;;;11.15;;
9310;SDS011;4694;52.464;13.480;2023-04-21T07:03:23;13.48;;;11.73;;
9310;SDS011;4694;52.464;13.480;2023-04-21T07:05:50;14.65;;;11.35;;
9310;SDS011;4694;52.464;13.480;2023-04-21T07:08:18;21.25;;;11.02;;
9310;SDS011;4694;52.464;13.480;2023-04-21T07:10:45;17.75;;;11.73;;
9310;SDS011;4694;52.464;13.480;2023-04-21T07:13:13;17.67;;;10.88;;
9310;SDS011;4694;52.464;13.480;2023-04-21T07:15:41;15.68;;;12.05;;
9310;SDS011;4694;52.464;13.480;2023-04-21T07:18:08;14.38;;;10.85;;
9310;SDS011;4694;52.464;13.480;2023-04-21T07:20:35;14.27;;;10.93;;
9310;SDS011;4694;52.464;13.480;2023-04-21T07:23:02;17.27;;;11.43;;
9310;SDS011;4694;52.464;13.480;2023-04-21T07:25:31;15.60;;;10.90;;
9310;SDS011;4694;52.464;13.480;2023-04-21T07:27:58;13.15;;;10.73;;
9310;SDS011;4694;52.464;13.480;2023-04-21T07:30:26;17.10;;;11.15;;
9310;SDS011;4694;52.464;13.480;2023-04-21T07:32:53;15.68;;;12.05;;
9310;SDS011;4694;52.464;13.480;2023-04-21T07:35:21;13.93;;;11.20;;
9310;SDS011;4694;52.464;13.480;2023-04-21T07:37:48;16.17;;;11.02;;
9310;SDS011;4694;52.464;13.480;2023-04-21T07:40:15;16.65;;;11.15;;
9310;SDS011;4694;52.464;13.480;2023-04-21T07:42:43;14.88;;;10.88;;
9310;SDS011;4694;52.464;13.480;2023-04-21T07:45:10;15.35;;;10.40;;
9310;SDS011;4694;52.464;13.480;2023-04-21T07:47:37;14.27;;;10.30;;
9310;SDS011;4694;52.464;13.480;2023-04-21T07:50:05;15.10;;;11.50;;
9310;SDS011;4694;52.464;13.480;2023-04-21T07:52:32;19.90;;;10.88;;
9310;SDS011;4694;52.464;13.480;2023-04-21T07:55:00;17.02;;;11.23;;
9310;SDS011;4694;52.464;13.480;2023-04-21T07:57:27;16.00;;;11.25;;
9310;SDS011;4694;52.464;13.480;2023-04-21T07:59:57;12.20;;;9.98;;
9310;SDS011;4694;52.464;13.480;2023-04-21T08:02:24;18.60;;;10.88;;
9310;SDS011;4694;52.464;13.480;2023-04-21T08:04:51;16.13;;;11.35;;
9310;SDS011;4694;52.464;13.480;2023-04-21T08:07:18;15.70;;;11.95;;
9310;SDS011;4694;52.464;13.480;2023-04-21T08:09:45;16.92;;;12.73;;
9310;SDS011;4694;52.464;13.480;2023-04-21T08:12:12;14.60;;;10.98;;
9310;SDS011;4694;52.464;13.480;2023-04-21T08:14:39;21.10;;;12.43;;
9310;SDS011;4694;52.464;13.480;2023-04-21T08:17:07;14.27;;;9.57;;
9310;SDS011;4694;52.464;13.480;2023-04-21T08:19:35;13.85;;;10.50;;
9310;SDS011;4694;52.464;13.480;2023-04-21T08:22:02;15.32;;;11.00;;
9310;SDS011;4694;52.464;13.480;2023-04-21T08:24:29;11.80;;;10.57;;
9310;SDS011;4694;52.464;13.480;2023-04-21T08:26:57;14.05;;;10.38;;
9310;SDS011;4694;52.464;13.480;2023-04-21T08:29:26;13.45;;;10.55;;
9310;SDS011;4694;52.464;13.480;2023-04-21T08:31:53;11.45;;;9.30;;
9310;SDS011;4694;52.464;13.480;2023-04-21T08:34:21;13.35;;;9.90;;
9310;SDS011;4694;52.464;13.480;2023-04-21T08:36:48;11.52;;;9.70;;
9310;SDS011;4694;52.464;13.480;2023-04-21T08:39:15;10.77;;;9.55;;
9310;SDS011;4694;52.464;13.480;2023-04-21T08:41:42;15.43;;;9.88;;
9310;SDS011;4694;52.464;13.480;2023-04-21T08:44:09;13.25;;;9.85;;
9310;SDS011;4694;52.464;13.480;2023-04-21T08:46:36;15.82;;;10.65;;
9310;SDS011;4694;52.464;13.480;2023-04-21T08:49:03;10.15;;;9.15;;
9310;SDS011;4694;52.464;13.480;2023-04-21T08:51:32;11.98;;;9.65;;
9310;SDS011;4694;52.464;13.480;2023-04-21T08:53:59;13.38;;;10.23;;
9310;SDS011;4694;52.464;13.480;2023-04-21T08:56:26;10.52;;;9.18;;
9310;SDS011;4694;52.464;13.480;2023-04-21T08:58:53;12.48;;;10.00;;
9310;SDS011;4694;52.464;13.480;2023-04-21T09:01:20;12.30;;;9.60;;
9310;SDS011;4694;52.464;13.480;2023-04-21T09:03:47;12.57;;;10.65;;
9310;SDS011;4694;52.464;13.480;2023-04-21T09:06:14;11.75;;;10.55;;
9310;SDS011;4694;52.464;13.480;2023-04-21T09:08:43;11.30;;;9.85;;
9310;SDS011;4694;52.464;13.480;2023-04-21T09:11:12;13.15;;;9.70;;
9310;SDS011;4694;52.464;13.480;2023-04-21T09:13:40;11.93;;;10.05;;
9310;SDS011;4694;52.464;13.480;2023-04-21T09:16:13;13.27;;;9.55;;
9310;SDS011;4694;52.464;13.480;2023-04-21T09:18:42;11.77;;;9.65;;
9310;SDS011;4694;52.464;13.480;2023-04-21T09:21:10;10.27;;;8.73;;
9310;SDS011;4694;52.464;13.480;2023-04-21T09:23:38;16.63;;;9.82;;
9310;SDS011;4694;52.464;13.480;2023-04-21T09:26:06;12.63;;;8.95;;
9310;SDS011;4694;52.464;13.480;2023-04-21T09:28:35;12.52;;;10.90;;
9310;SDS011;4694;52.464;13.480;2023-04-21T09:31:02;11.10;;;9.93;;
9310;SDS011;4694;52.464;13.480;2023-04-21T09:33:32;11.13;;;10.07;;
9310;SDS011;4694;52.464;13.480;2023-04-21T09:36:00;11.60;;;10.17;;
9310;SDS011;4694;52.464;13.480;2023-04-21T09:38:28;10.32;;;9.00;;
9310;SDS011;4694;52.464;13.480;2023-04-21T09:40:55;12.35;;;8.65;;
9310;SDS011;4694;52.464;13.480;2023-04-21T09:43:24;9.13;;;8.00;;
9310;SDS011;4694;52.464;13.480;2023-04-21T09:45:51;10.25;;;7.75;;
9310;SDS011;4694;52.464;13.480;2023-04-21T09:48:19;13.68;;;9.18;;
9310;SDS011;4694;52.464;13.480;2023-04-21T09:50:48;22.85;;;13.07;;
9310;SDS011;4694;52.464;13.480;2023-04-21T09:53:16;14.90;;;9.18;;
9310;SDS011;4694;52.464;13.480;2023-04-21T09:55:46;12.80;;;9.95;;
9310;SDS011;4694;52.464;13.480;2023-04-21T09:58:13;9.75;;;8.77;;
9310;SDS011;4694;52.464;13.480;2023-04-21T10:00:43;11.63;;;9.80;;
9310;SDS011;4694;52.464;13.480;2023-04-21T10:03:10;8.85;;;8.10;;
9310;SDS011;4694;52.464;13.480;2023-04-21T10:05:38;9.75;;;8.45;;
9310;SDS011;4694;52.464;13.480;2023-04-21T10:08:05;10.30;;;8.52;;
9310;SDS011;4694;52.464;13.480;2023-04-21T10:10:35;9.90;;;8.60;;
9310;SDS011;4694;52.464;13.480;2023-04-21T10:13:02;9.80;;;8.55;;
9310;SDS011;4694;52.464;13.480;2023-04-21T10:15:30;11.30;;;7.53;;
9310;SDS011;4694;52.464;13.480;2023-04-21T10:18:12;12.57;;;8.48;;
9310;SDS011;4694;52.464;13.480;2023-04-21T10:20:49;10.93;;;8.00;;
9310;SDS011;4694;52.464;13.480;2023-04-21T10:23:24;8.40;;;7.60;;
9310;SDS011;4694;52.464;13.480;2023-04-21T10:25:51;11.57;;;7.43;;
9310;SDS011;4694;52.464;13.480;2023-04-21T10:28:18;7.90;;;7.20;;
9310;SDS011;4694;52.464;13.480;2023-04-21T10:30:46;10.00;;;8.02;;
9310;SDS011;4694;52.464;13.480;2023-04-21T10:33:15;12.93;;;8.43;;
9310;SDS011;4694;52.464;13.480;2023-04-21T10:36:02;11.68;;;8.90;;
9310;SDS011;4694;52.464;13.480;2023-04-21T10:38:33;9.30;;;7.63;;
9310;SDS011;4694;52.464;13.480;2023-04-21T10:41:08;7.68;;;6.88;;
9310;SDS011;4694;52.464;13.480;2023-04-21T10:43:56;10.65;;;7.78;;
9310;SDS011;4694;52.464;13.480;2023-04-21T10:46:33;7.88;;;7.00;;
9310;SDS011;4694;52.464;13.480;2023-04-21T10:49:05;9.93;;;7.57;;
9310;SDS011;4694;52.464;13.480;2023-04-21T10:54:16;8.27;;;6.78;;
9310;SDS011;4694;52.464;13.480;2023-04-21T10:56:43;8.50;;;6.88;;
9310;SDS011;4694;52.464;13.480;2023-04-21T10:59:10;9.13;;;7.57;;
9310;SDS011;4694;52.464;13.480;2023-04-21T11:01:38;9.07;;;7.45;;
9310;SDS011;4694;52.464;13.480;2023-04-21T11:04:09;9.38;;;6.78;;
9310;SDS011;4694;52.464;13.480;2023-04-21T11:06:39;8.35;;;6.82;;
9310;SDS011;4694;52.464;13.480;2023-04-21T11:09:06;8.95;;;7.03;;
9310;SDS011;4694;52.464;13.480;2023-04-21T11:11:33;7.70;;;6.90;;
9310;SDS011;4694;52.464;13.480;2023-04-21T11:14:00;7.68;;;6.88;;
9310;SDS011;4694;52.464;13.480;2023-04-21T11:16:27;6.82;;;6.22;;
9310;SDS011;4694;52.464;13.480;2023-04-21T11:18:55;8.05;;;7.07;;
9310;SDS011;4694;52.464;13.480;2023-04-21T11:21:23;7.43;;;6.68;;
9310;SDS011;4694;52.464;13.480;2023-04-21T11:23:51;8.53;;;6.73;;
9310;SDS011;4694;52.464;13.480;2023-04-21T11:26:21;10.38;;;6.95;;
9310;SDS011;4694;52.464;13.480;2023-04-21T11:28:55;7.85;;;7.10;;
9310;SDS011;4694;52.464;13.480;2023-04-21T11:31:22;12.68;;;7.75;;
9310;SDS011;4694;52.464;13.480;2023-04-21T11:33:54;10.55;;;6.47;;
9310;SDS011;4694;52.464;13.480;2023-04-21T11:36:23;8.38;;;7.53;;
9310;SDS011;4694;52.464;13.480;2023-04-21T11:38:51;7.40;;;6.70;;
9310;SDS011;4694;52.464;13.480;2023-04-21T11:41:21;9.02;;;7.97;;
9310;SDS011;4694;52.464;13.480;2023-04-21T11:43:49;8.02;;;6.63;;
9310;SDS011;4694;52.464;13.480;2023-04-21T11:46:17;9.02;;;6.32;;
9310;SDS011;4694;52.464;13.480;2023-04-21T11:48:44;10.88;;;6.80;;
9310;SDS011;4694;52.464;13.480;2023-04-21T11:51:14;7.80;;;7.07;;
9310;SDS011;4694;52.464;13.480;2023-04-21T11:53:43;8.95;;;6.57;;
9310;SDS011;4694;52.464;13.480;2023-04-21T11:56:15;10.25;;;6.75;;
9310;SDS011;4694;52.464;13.480;2023-04-21T11:58:42;9.90;;;7.35;;
9310;SDS011;4694;52.464;13.480;2023-04-21T12:01:10;7.10;;;6.47;;
9310;SDS011;4694;52.464;13.480;2023-04-21T12:03:37;7.88;;;7.13;;
9310;SDS011;4694;52.464;13.480;2023-04-21T12:06:05;7.65;;;6.90;;
9310;SDS011;4694;52.464;13.480;2023-04-21T12:08:32;6.93;;;6.25;;
9310;SDS011;4694;52.464;13.480;2023-04-21T12:11:02;7.05;;;6.45;;
9310;SDS011;4694;52.464;13.480;2023-04-21T12:13:29;7.03;;;6.43;;
9310;SDS011;4694;52.464;13.480;2023-04-21T12:15:56;10.15;;;7.30;;
9310;SDS011;4694;52.464;13.480;2023-04-21T12:18:26;7.03;;;6.32;;
9310;SDS011;4694;52.464;13.480;2023-04-21T12:20:53;9.27;;;6.97;;
9310;SDS011;4694;52.464;13.480;2023-04-21T12:23:20;6.88;;;6.28;;
9310;SDS011;4694;52.464;13.480;2023-04-21T12:25:47;8.27;;;7.57;;
9310;SDS011;4694;52.464;13.480;2023-04-21T12:28:16;7.88;;;6.93;;
9310;SDS011;4694;52.464;13.480;2023-04-21T12:30:43;8.10;;;7.40;;
9310;SDS011;4694;52.464;13.480;2023-04-21T12:33:10;7.55;;;6.72;;
9310;SDS011;4694;52.464;13.480;2023-04-21T12:35:37;6.85;;;6.18;;
9310;SDS011;4694;52.464;13.480;2023-04-21T12:38:05;9.68;;;6.60;;
9310;SDS011;4694;52.464;13.480;2023-04-21T12:40:32;8.20;;;5.95;;
9310;SDS011;4694;52.464;13.480;2023-04-21T12:42:59;8.00;;;5.80;;
9310;SDS011;4694;52.464;13.480;2023-04-21T12:45:27;7.47;;;6.70;;
9310;SDS011;4694;52.464;13.480;2023-04-21T12:47:55;8.98;;;5.80;;
9310;SDS011;4694;52.464;13.480;2023-04-21T12:50:23;6.47;;;5.93;;
9310;SDS011;4694;52.464;13.480;2023-04-21T12:52:50;8.30;;;5.88;;
9310;SDS011;4694;52.464;13.480;2023-04-21T12:55:19;6.05;;;5.55;;
9310;SDS011;4694;52.464;13.480;2023-04-21T12:57:46;6.65;;;6.05;;
9310;SDS011;4694;52.464;13.480;2023-04-21T13:00:13;5.53;;;4.93;;
9310;SDS011;4694;52.464;13.480;2023-04-21T13:02:43;6.13;;;5.57;;
9310;SDS011;4694;52.464;13.480;2023-04-21T13:05:10;6.45;;;5.85;;
9310;SDS011;4694;52.464;13.480;2023-04-21T13:07:38;6.97;;;6.35;;
9310;SDS011;4694;52.464;13.480;2023-04-21T13:10:06;6.13;;;5.60;;
9310;SDS011;4694;52.464;13.480;2023-04-21T13:12:33;6.97;;;6.28;;
9310;SDS011;4694;52.464;13.480;2023-04-21T13:15:00;6.68;;;6.00;;
9310;SDS011;4694;52.464;13.480;2023-04-21T13:17:27;6.88;;;5.93;;
9310;SDS011;4694;52.464;13.480;2023-04-21T13:19:56;6.72;;;6.10;;
9310;SDS011;4694;52.464;13.480;2023-04-21T13:22:23;6.28;;;5.78;;
9310;SDS011;4694;52.464;13.480;2023-04-21T13:24:50;7.18;;;5.88;;
9310;SDS011;4694;52.464;13.480;2023-04-21T13:27:16;7.90;;;6.30;;
9310;SDS011;4694;52.464;13.480;2023-04-21T13:29:44;6.47;;;5.65;;
9310;SDS011;4694;52.464;13.480;2023-04-21T13:32:13;9.10;;;6.33;;
9310;SDS011;4694;52.464;13.480;2023-04-21T13:34:40;6.25;;;5.75;;
9310;SDS011;4694;52.464;13.480;2023-04-21T13:37:08;6.72;;;5.95;;
9310;SDS011;4694;52.464;13.480;2023-04-21T13:39:40;6.85;;;5.38;;
9310;SDS011;4694;52.464;13.480;2023-04-21T13:42:07;9.82;;;5.07;;
9310;SDS011;4694;52.464;13.480;2023-04-21T13:44:34;5.85;;;5.15;;
9310;SDS011;4694;52.464;13.480;2023-04-21T13:47:01;7.50;;;6.07;;
9310;SDS011;4694;52.464;13.480;2023-04-21T13:49:28;9.55;;;5.72;;
9310;SDS011;4694;52.464;13.480;2023-04-21T13:51:55;11.38;;;6.25;;
9310;SDS011;4694;52.464;13.480;2023-04-21T13:54:24;6.70;;;6.00;;
9310;SDS011;4694;52.464;13.480;2023-04-21T13:56:51;6.90;;;5.72;;
9310;SDS011;4694;52.464;13.480;2023-04-21T13:59:18;7.30;;;6.00;;
9310;SDS011;4694;52.464;13.480;2023-04-21T14:01:45;6.03;;;5.53;;
9310;SDS011;4694;52.464;13.480;2023-04-21T14:04:12;7.55;;;5.63;;
9310;SDS011;4694;52.464;13.480;2023-04-21T14:06:39;7.38;;;5.20;;
9310;SDS011;4694;52.464;13.480;2023-04-21T14:09:06;7.00;;;5.65;;
9310;SDS011;4694;52.464;13.480;2023-04-21T14:14:04;10.32;;;5.65;;
9310;SDS011;4694;52.464;13.480;2023-04-21T14:16:31;7.80;;;5.72;;
9310;SDS011;4694;52.464;13.480;2023-04-21T14:18:58;6.53;;;5.70;;
9310;SDS011;4694;52.464;13.480;2023-04-21T14:21:25;6.70;;;5.55;;
9310;SDS011;4694;52.464;13.480;2023-04-21T14:23:52;8.23;;;5.60;;
9310;SDS011;4694;52.464;13.480;2023-04-21T14:26:20;6.57;;;5.93;;
9310;SDS011;4694;52.464;13.480;2023-04-21T14:28:47;6.03;;;5.43;;
9310;SDS011;4694;52.464;13.480;2023-04-21T14:31:16;6.50;;;5.90;;
9310;SDS011;4694;52.464;13.480;2023-04-21T14:33:43;6.70;;;6.10;;
9310;SDS011;4694;52.464;13.480;2023-04-21T14:36:10;9.88;;;5.65;;
9310;SDS011;4694;52.464;13.480;2023-04-21T14:38:37;6.03;;;5.45;;
9310;SDS011;4694;52.464;13.480;2023-04-21T14:41:05;9.43;;;6.25;;
9310;SDS011;4694;52.464;13.480;2023-04-21T14:43:33;6.82;;;6.03;;
9310;SDS011;4694;52.464;13.480;2023-04-21T14:46:00;8.23;;;4.95;;
9310;SDS011;4694;52.464;13.480;2023-04-21T14:48:28;7.35;;;5.00;;
9310;SDS011;4694;52.464;13.480;2023-04-21T14:50:55;6.47;;;5.20;;
9310;SDS011;4694;52.464;13.480;2023-04-21T14:53:22;6.43;;;5.22;;
9310;SDS011;4694;52.464;13.480;2023-04-21T14:55:49;9.93;;;5.00;;
9310;SDS011;4694;52.464;13.480;2023-04-21T14:58:16;8.73;;;6.65;;
9310;SDS011;4694;52.464;13.480;2023-04-21T15:00:43;6.68;;;5.35;;
9310;SDS011;4694;52.464;13.480;2023-04-21T15:03:10;5.55;;;5.10;;
9310;SDS011;4694;52.464;13.480;2023-04-21T15:05:39;8.73;;;5.72;;
9310;SDS011;4694;52.464;13.480;2023-04-21T15:08:06;8.45;;;5.65;;
9310;SDS011;4694;52.464;13.480;2023-04-21T15:10:34;9.93;;;6.00;;
9310;SDS011;4694;52.464;13.480;2023-04-21T15:13:01;5.93;;;5.43;;
9310;SDS011;4694;52.464;13.480;2023-04-21T15:15:28;9.07;;;6.03;;
9310;SDS011;4694;52.464;13.480;2023-04-21T15:17:55;12.20;;;6.88;;
9310;SDS011;4694;52.464;13.480;2023-04-21T15:20:22;8.85;;;5.35;;
9310;SDS011;4694;52.464;13.480;2023-04-21T15:22:50;9.02;;;5.30;;
9310;SDS011;4694;52.464;13.480;2023-04-21T15:25:17;5.15;;;4.65;;
9310;SDS011;4694;52.464;13.480;2023-04-21T15:27:44;8.32;;;6.60;;
9310;SDS011;4694;52.464;13.480;2023-04-21T15:30:12;8.43;;;5.70;;
9310;SDS011;4694;52.464;13.480;2023-04-21T15:32:39;7.32;;;6.65;;
9310;SDS011;4694;52.464;13.480;2023-04-21T15:35:06;8.73;;;5.20;;
9310;SDS011;4694;52.464;13.480;2023-04-21T15:37:33;8.48;;;4.85;;
9310;SDS011;4694;52.464;13.480;2023-04-21T15:40:04;6.65;;;5.45;;
9310;SDS011;4694;52.464;13.480;2023-04-21T15:42:32;6.13;;;5.30;;
9310;SDS011;4694;52.464;13.480;2023-04-21T15:44:59;9.45;;;5.00;;
9310;SDS011;4694;52.464;13.480;2023-04-21T15:47:28;6.10;;;5.05;;
9310;SDS011;4694;52.464;13.480;2023-04-21T15:49:55;9.70;;;5.93;;
9310;SDS011;4694;52.464;13.480;2023-04-21T15:52:22;7.40;;;5.10;;
9310;SDS011;4694;52.464;13.480;2023-04-21T15:54:49;5.93;;;5.10;;
9310;SDS011;4694;52.464;13.480;2023-04-21T15:57:18;7.97;;;6.15;;
9310;SDS011;4694;52.464;13.480;2023-04-21T15:59:45;7.85;;;5.50;;
9310;SDS011;4694;52.464;13.480;2023-04-21T16:02:12;6.57;;;5.32;;
9310;SDS011;4694;52.464;13.480;2023-04-21T16:04:39;9.52;;;5.05;;
9310;SDS011;4694;52.464;13.480;2023-04-21T16:07:06;8.00;;;5.20;;
9310;SDS011;4694;52.464;13.480;2023-04-21T16:09:33;6.32;;;4.68;;
9310;SDS011;4694;52.464;13.480;2023-04-21T16:12:00;5.85;;;5.35;;
9310;SDS011;4694;52.464;13.480;2023-04-21T16:14:33;9.63;;;6.50;;
9310;SDS011;4694;52.464;13.480;2023-04-21T16:17:02;7.68;;;5.25;;
9310;SDS011;4694;52.464;13.480;2023-04-21T16:19:29;5.95;;;5.25;;
9310;SDS011;4694;52.464;13.480;2023-04-21T16:21:57;6.10;;;5.53;;
9310;SDS011;4694;52.464;13.480;2023-04-21T16:24:25;8.38;;;5.10;;
9310;SDS011;4694;52.464;13.480;2023-04-21T16:26:52;6.85;;;5.50;;
9310;SDS011;4694;52.464;13.480;2023-04-21T16:29:19;7.32;;;5.45;;
9310;SDS011;4694;52.464;13.480;2023-04-21T16:31:47;5.85;;;5.32;;
9310;SDS011;4694;52.464;13.480;2023-04-21T16:34:14;7.60;;;5.43;;
9310;SDS011;4694;52.464;13.480;2023-04-21T16:36:41;6.68;;;5.32;;
9310;SDS011;4694;52.464;13.480;2023-04-21T16:39:08;8.18;;;4.47;;
9310;SDS011;4694;52.464;13.480;2023-04-21T16:41:35;8.05;;;4.55;;
9310;SDS011;4694;52.464;13.480;2023-04-21T16:44:02;7.32;;;4.93;;
9310;SDS011;4694;52.464;13.480;2023-04-21T16:46:29;5.55;;;4.85;;
9310;SDS011;4694;52.464;13.480;2023-04-21T16:48:58;9.80;;;5.40;;
9310;SDS011;4694;52.464;13.480;2023-04-21T16:51:25;6.03;;;5.03;;
9310;SDS011;4694;52.464;13.480;2023-04-21T16:53:52;9.88;;;4.95;;
9310;SDS011;4694;52.464;13.480;2023-04-21T16:56:20;6.97;;;4.22;;
9310;SDS011;4694;52.464;13.480;2023-04-21T16:58:47;5.82;;;5.10;;
9310;SDS011;4694;52.464;13.480;2023-04-21T17:01:14;6.50;;;5.10;;
9310;SDS011;4694;52.464;13.480;2023-04-21T17:03:41;7.60;;;5.18;;
9310;SDS011;4694;52.464;13.480;2023-04-21T17:06:10;6.05;;;5.38;;
9310;SDS011;4694;52.464;13.480;2023-04-21T17:08:41;6.53;;;4.85;;
9310;SDS011;4694;52.464;13.480;2023-04-21T17:11:08;6.45;;;4.60;;
9310;SDS011;4694;52.464;13.480;2023-04-21T17:13:35;9.52;;;5.50;;
9310;SDS011;4694;52.464;13.480;2023-04-21T17:16:03;7.13;;;4.55;;
9310;SDS011;4694;52.464;13.480;2023-04-21T17:18:30;5.55;;;4.35;;
9310;SDS011;4694;52.464;13.480;2023-04-21T17:20:57;9.07;;;5.38;;
9310;SDS011;4694;52.464;13.480;2023-04-21T17:23:26;8.00;;;4.93;;
9310;SDS011;4694;52.464;13.480;2023-04-21T17:25:53;8.30;;;5.07;;
9310;SDS011;4694;52.464;13.480;2023-04-21T17:28:20;12.23;;;5.22;;
9310;SDS011;4694;52.464;13.480;2023-04-21T17:30:47;6.93;;;5.03;;
9310;SDS011;4694;52.464;13.480;2023-04-21T17:33:14;6.85;;;4.90;;
9310;SDS011;4694;52.464;13.480;2023-04-21T17:35:42;7.63;;;4.60;;
9310;SDS011;4694;52.464;13.480;2023-04-21T17:38:09;5.53;;;4.47;;
9310;SDS011;4694;52.464;13.480;2023-04-21T17:40:37;4.88;;;3.88;;
9310;SDS011;4694;52.464;13.480;2023-04-21T17:43:04;11.25;;;5.03;;
9310;SDS011;4694;52.464;13.480;2023-04-21T17:45:31;4.95;;;4.30;;
9310;SDS011;4694;52.464;13.480;2023-04-21T17:47:58;5.97;;;4.75;;
9310;SDS011;4694;52.464;13.480;2023-04-21T17:50:25;5.90;;;4.55;;
9310;SDS011;4694;52.464;13.480;2023-04-21T17:52:52;7.13;;;4.40;;
9310;SDS011;4694;52.464;13.480;2023-04-21T17:55:19;6.85;;;4.57;;
9310;SDS011;4694;52.464;13.480;2023-04-21T17:57:48;5.47;;;4.70;;
9310;SDS011;4694;52.464;13.480;2023-04-21T18:00:15;7.20;;;4.75;;
9310;SDS011;4694;52.464;13.480;2023-04-21T18:02:42;5.35;;;4.22;;
9310;SDS011;4694;52.464;13.480;2023-04-21T18:05:09;11.27;;;4.68;;
9310;SDS011;4694;52.464;13.480;2023-04-21T18:07:37;7.20;;;4.40;;
9310;SDS011;4694;52.464;13.480;2023-04-21T18:10:05;5.85;;;4.10;;
9310;SDS011;4694;52.464;13.480;2023-04-21T18:12:32;22.55;;;8.02;;
9310;SDS011;4694;52.464;13.480;2023-04-21T18:15:00;6.03;;;4.57;;
